sensor_id;sensor_type;location;lat;lon;timestamp;pressure;altitude;pressure_sealevel;temperature;humidity
79366;BME280;68833;53.160;17.920;2023-08-01T00:01:33;99624.67;;;18.77;67.22
79366;BME280;68833;53.160;17.920;2023-08-01T00:03:59;99623.20;;;18.74;67.25
79366;BME280;68833;53.160;17.920;2023-08-01T00:06:25;99618.77;;;18.74;67.22
79366;BME280;68833;53.160;17.920;2023-08-01T00:08:52;99612.70;;;18.74;67.25
79366;BME280;68833;53.160;17.920;2023-08-01T00:11:19;99602.09;;;18.74;67.24
79366;BME280;68833;53.160;17.920;2023-08-01T00:13:45;99598.06;;;18.72;67.23
79366;BME280;68833;53.160;17.920;2023-08-01T00:16:11;99592.61;;;18.70;67.24
79366;BME280;68833;53.160;17.920;2023-08-01T00:18:38;99592.92;;;18.69;67.36
79366;BME280;68833;53.160;17.920;2023-08-01T00:21:04;99590.68;;;18.67;67.33
79366;BME280;68833;53.160;17.920;2023-08-01T00:23:36;99588.23;;;18.64;67.40
79366;BME280;68833;53.160;17.920;2023-08-01T00:26:02;99587.73;;;18.63;67.19
79366;BME280;68833;53.160;17.920;2023-08-01T00:28:30;99587.20;;;18.63;67.07
79366;BME280;68833;53.160;17.920;2023-08-01T00:31:07;99584.08;;;18.62;67.30
79366;BME280;68833;53.160;17.920;2023-08-01T00:33:37;99583.20;;;18.62;67.29
79366;BME280;68833;53.160;17.920;2023-08-01T00:36:03;99579.73;;;18.60;67.47
79366;BME280;68833;53.160;17.920;2023-08-01T00:38:36;99570.95;;;18.58;67.60
79366;BME280;68833;53.160;17.920;2023-08-01T00:41:02;99568.02;;;18.57;67.64
79366;BME280;68833;53.160;17.920;2023-08-01T00:43:29;99561.44;;;18.57;67.42
79366;BME280;68833;53.160;17.920;2023-08-01T00:46:00;99557.81;;;18.58;67.54
79366;BME280;68833;53.160;17.920;2023-08-01T00:48:31;99554.02;;;18.59;67.84
79366;BME280;68833;53.160;17.920;2023-08-01T00:51:00;99552.85;;;18.58;67.70
79366;BME280;68833;53.160;17.920;2023-08-01T00:53:27;99547.59;;;18.57;67.58
79366;BME280;68833;53.160;17.920;2023-08-01T00:55:55;99544.58;;;18.56;67.69
79366;BME280;68833;53.160;17.920;2023-08-01T00:58:21;99537.55;;;18.55;67.66
79366;BME280;68833;53.160;17.920;2023-08-01T01:00:47;99531.13;;;18.55;67.54
79366;BME280;68833;53.160;17.920;2023-08-01T01:03:14;99526.75;;;18.54;67.86
79366;BME280;68833;53.160;17.920;2023-08-01T01:05:49;99527.69;;;18.56;67.59
79366;BME280;68833;53.160;17.920;2023-08-01T01:08:18;99525.02;;;18.57;67.55
79366;BME280;68833;53.160;17.920;2023-08-01T01:10:45;99519.82;;;18.57;67.72
79366;BME280;68833;53.160;17.920;2023-08-01T01:13:11;99516.30;;;18.57;67.57
79366;BME280;68833;53.160;17.920;2023-08-01T01:15:38;99514.00;;;18.56;67.58
79366;BME280;68833;53.160;17.920;2023-08-01T01:18:04;99509.80;;;18.55;67.69
79366;BME280;68833;53.160;17.920;2023-08-01T01:20:35;99507.08;;;18.56;67.62
79366;BME280;68833;53.160;17.920;2023-08-01T01:23:04;99503.13;;;18.57;67.72
79366;BME280;68833;53.160;17.920;2023-08-01T01:25:32;99502.15;;;18.55;67.63
79366;BME280;68833;53.160;17.920;2023-08-01T01:27:59;99495.51;;;18.53;67.67
79366;BME280;68833;53.160;17.920;2023-08-01T01:30:28;99497.34;;;18.52;67.74
79366;BME280;68833;53.160;17.920;2023-08-01T01:32:56;99494.06;;;18.51;67.65
79366;BME280;68833;53.160;17.920;2023-08-01T01:35:24;99489.67;;;18.50;67.61
79366;BME280;68833;53.160;17.920;2023-08-01T01:37:53;99481.83;;;18.50;67.48
79366;BME280;68833;53.160;17.920;2023-08-01T01:40:19;99484.27;;;18.51;67.82
79366;BME280;68833;53.160;17.920;2023-08-01T01:42:47;99471.65;;;18.51;67.68
79366;BME280;68833;53.160;17.920;2023-08-01T01:45:15;99470.02;;;18.51;67.60
79366;BME280;68833;53.160;17.920;2023-08-01T01:47:42;99470.52;;;18.52;67.79
79366;BME280;68833;53.160;17.920;2023-08-01T01:50:09;99465.80;;;18.50;67.76
79366;BME280;68833;53.160;17.920;2023-08-01T01:52:36;99461.56;;;18.48;67.74
79366;BME280;68833;53.160;17.920;2023-08-01T01:55:03;99459.86;;;18.46;67.90
79366;BME280;68833;53.160;17.920;2023-08-01T01:57:31;99462.04;;;18.45;67.70
79366;BME280;68833;53.160;17.920;2023-08-01T01:59:59;99451.95;;;18.45;67.90
79366;BME280;68833;53.160;17.920;2023-08-01T02:02:27;99446.30;;;18.44;67.87
79366;BME280;68833;53.160;17.920;2023-08-01T02:04:56;99443.81;;;18.44;67.83
79366;BME280;68833;53.160;17.920;2023-08-01T02:07:23;99441.19;;;18.43;67.62
79366;BME280;68833;53.160;17.920;2023-08-01T02:09:51;99440.33;;;18.43;67.92
79366;BME280;68833;53.160;17.920;2023-08-01T02:12:18;99434.29;;;18.43;67.85
79366;BME280;68833;53.160;17.920;2023-08-01T02:14:45;99431.42;;;18.43;67.86
79366;BME280;68833;53.160;17.920;2023-08-01T02:17:13;99430.34;;;18.44;67.84
79366;BME280;68833;53.160;17.920;2023-08-01T02:19:40;99423.42;;;18.43;67.70
79366;BME280;68833;53.160;17.920;2023-08-01T02:22:07;99421.96;;;18.44;67.88
79366;BME280;68833;53.160;17.920;2023-08-01T02:24:34;99417.25;;;18.45;67.80
79366;BME280;68833;53.160;17.920;2023-08-01T02:27:01;99413.77;;;18.44;67.65
79366;BME280;68833;53.160;17.920;2023-08-01T02:29:29;99410.76;;;18.44;67.86
79366;BME280;68833;53.160;17.920;2023-08-01T02:31:56;99404.52;;;18.44;67.80
79366;BME280;68833;53.160;17.920;2023-08-01T02:34:23;99401.09;;;18.45;67.85
79366;BME280;68833;53.160;17.920;2023-08-01T02:36:50;99398.28;;;18.47;67.57
79366;BME280;68833;53.160;17.920;2023-08-01T02:39:17;99401.62;;;18.48;67.89
79366;BME280;68833;53.160;17.920;2023-08-01T02:41:44;99402.48;;;18.48;67.87
79366;BME280;68833;53.160;17.920;2023-08-01T02:44:11;99398.02;;;18.48;67.85
79366;BME280;68833;53.160;17.920;2023-08-01T02:46:38;99388.64;;;18.48;67.88
79366;BME280;68833;53.160;17.920;2023-08-01T02:49:05;99387.80;;;18.47;67.91
79366;BME280;68833;53.160;17.920;2023-08-01T02:51:32;99389.36;;;18.47;67.77
79366;BME280;68833;53.160;17.920;2023-08-01T02:53:59;99390.20;;;18.49;67.89
79366;BME280;68833;53.160;17.920;2023-08-01T02:56:25;99383.98;;;18.48;67.68
79366;BME280;68833;53.160;17.920;2023-08-01T02:58:54;99387.77;;;18.48;67.71
79366;BME280;68833;53.160;17.920;2023-08-01T03:01:22;99383.91;;;18.47;67.85
79366;BME280;68833;53.160;17.920;2023-08-01T03:03:49;99380.64;;;18.45;67.80
79366;BME280;68833;53.160;17.920;2023-08-01T03:06:16;99377.98;;;18.42;67.83
79366;BME280;68833;53.160;17.920;2023-08-01T03:08:43;99381.77;;;18.44;67.88
79366;BME280;68833;53.160;17.920;2023-08-01T03:11:11;99382.27;;;18.44;67.74
79366;BME280;68833;53.160;17.920;2023-08-01T03:13:37;99382.07;;;18.45;67.78
79366;BME280;68833;53.160;17.920;2023-08-01T03:16:05;99381.66;;;18.45;67.87
79366;BME280;68833;53.160;17.920;2023-08-01T03:18:32;99381.59;;;18.44;67.88
79366;BME280;68833;53.160;17.920;2023-08-01T03:21:01;99380.75;;;18.43;67.98
79366;BME280;68833;53.160;17.920;2023-08-01T03:23:30;99376.31;;;18.43;67.94
79366;BME280;68833;53.160;17.920;2023-08-01T03:25:58;99373.16;;;18.42;67.99
79366;BME280;68833;53.160;17.920;2023-08-01T03:28:26;99367.79;;;18.43;68.03
79366;BME280;68833;53.160;17.920;2023-08-01T03:30:53;99357.06;;;18.44;68.11
79366;BME280;68833;53.160;17.920;2023-08-01T03:33:20;99350.70;;;18.43;68.30
79366;BME280;68833;53.160;17.920;2023-08-01T03:35:47;99350.70;;;18.43;68.22
79366;BME280;68833;53.160;17.920;2023-08-01T03:38:14;99343.73;;;18.43;68.30
79366;BME280;68833;53.160;17.920;2023-08-01T03:40:42;99341.91;;;18.42;68.39
79366;BME280;68833;53.160;17.920;2023-08-01T03:43:09;99339.80;;;18.41;68.26
79366;BME280;68833;53.160;17.920;2023-08-01T03:45:37;99338.54;;;18.39;68.39
79366;BME280;68833;53.160;17.920;2023-08-01T03:48:04;99335.11;;;18.36;68.42
79366;BME280;68833;53.160;17.920;2023-08-01T03:50:32;99337.66;;;18.35;68.76
79366;BME280;68833;53.160;17.920;2023-08-01T03:52:59;99335.89;;;18.32;68.83
79366;BME280;68833;53.160;17.920;2023-08-01T03:55:26;99337.57;;;18.31;68.93
79366;BME280;68833;53.160;17.920;2023-08-01T03:57:53;99337.28;;;18.30;69.14
79366;BME280;68833;53.160;17.920;2023-08-01T04:00:20;99339.61;;;18.30;69.14
79366;BME280;68833;53.160;17.920;2023-08-01T04:02:47;99341.30;;;18.31;69.55
79366;BME280;68833;53.160;17.920;2023-08-01T04:05:14;99344.20;;;18.30;69.65
79366;BME280;68833;53.160;17.920;2023-08-01T04:07:41;99340.79;;;18.28;69.76
79366;BME280;68833;53.160;17.920;2023-08-01T04:10:09;99339.80;;;18.27;70.01
79366;BME280;68833;53.160;17.920;2023-08-01T04:12:36;99336.81;;;18.24;70.12
79366;BME280;68833;53.160;17.920;2023-08-01T04:15:03;99332.77;;;18.20;70.33
79366;BME280;68833;53.160;17.920;2023-08-01T04:17:30;99335.58;;;18.18;70.43
79366;BME280;68833;53.160;17.920;2023-08-01T04:19:59;99336.98;;;18.15;70.89
79366;BME280;68833;53.160;17.920;2023-08-01T04:22:26;99334.10;;;18.16;70.80
79366;BME280;68833;53.160;17.920;2023-08-01T04:24:53;99327.80;;;18.14;71.08
79366;BME280;68833;53.160;17.920;2023-08-01T04:27:20;99328.78;;;18.13;70.90
79366;BME280;68833;53.160;17.920;2023-08-01T04:29:48;99331.41;;;18.11;71.06
79366;BME280;68833;53.160;17.920;2023-08-01T04:32:15;99329.80;;;18.11;71.29
79366;BME280;68833;53.160;17.920;2023-08-01T04:34:42;99327.96;;;18.11;71.24
79366;BME280;68833;53.160;17.920;2023-08-01T04:37:09;99328.13;;;18.12;71.60
79366;BME280;68833;53.160;17.920;2023-08-01T04:39:37;99325.32;;;18.09;71.61
79366;BME280;68833;53.160;17.920;2023-08-01T04:42:04;99320.84;;;18.06;72.06
79366;BME280;68833;53.160;17.920;2023-08-01T04:44:31;99318.39;;;18.02;72.03
79366;BME280;68833;53.160;17.920;2023-08-01T04:46:58;99315.39;;;17.99;72.19
79366;BME280;68833;53.160;17.920;2023-08-01T04:49:25;99314.16;;;17.96;72.29
79366;BME280;68833;53.160;17.920;2023-08-01T04:51:52;99314.83;;;17.97;72.29
79366;BME280;68833;53.160;17.920;2023-08-01T04:54:19;99312.67;;;17.95;72.92
79366;BME280;68833;53.160;17.920;2023-08-01T04:56:46;99313.77;;;17.94;72.89
79366;BME280;68833;53.160;17.920;2023-08-01T04:59:13;99312.11;;;17.92;72.63
79366;BME280;68833;53.160;17.920;2023-08-01T05:01:40;99311.72;;;17.89;73.09
79366;BME280;68833;53.160;17.920;2023-08-01T05:04:07;99306.52;;;17.87;73.24
79366;BME280;68833;53.160;17.920;2023-08-01T05:06:34;99310.44;;;17.87;73.29
79366;BME280;68833;53.160;17.920;2023-08-01T05:09:01;99303.48;;;17.84;73.38
79366;BME280;68833;53.160;17.920;2023-08-01T05:11:28;99303.39;;;17.83;73.65
79366;BME280;68833;53.160;17.920;2023-08-01T05:13:55;99306.15;;;17.81;74.00
79366;BME280;68833;53.160;17.920;2023-08-01T05:16:22;99304.69;;;17.79;74.01
79366;BME280;68833;53.160;17.920;2023-08-01T05:18:49;99301.33;;;17.79;74.07
79366;BME280;68833;53.160;17.920;2023-08-01T05:21:16;99297.11;;;17.78;74.12
79366;BME280;68833;53.160;17.920;2023-08-01T05:23:43;99294.80;;;17.78;74.22
79366;BME280;68833;53.160;17.920;2023-08-01T05:26:10;99290.19;;;17.75;74.43
79366;BME280;68833;53.160;17.920;2023-08-01T05:28:37;99288.29;;;17.74;74.59
79366;BME280;68833;53.160;17.920;2023-08-01T05:31:04;99283.55;;;17.74;74.89
79366;BME280;68833;53.160;17.920;2023-08-01T05:33:31;99282.05;;;17.72;74.59
79366;BME280;68833;53.160;17.920;2023-08-01T05:35:58;99277.52;;;17.71;75.30
79366;BME280;68833;53.160;17.920;2023-08-01T05:38:25;99276.83;;;17.67;75.57
79366;BME280;68833;53.160;17.920;2023-08-01T05:40:52;99276.41;;;17.62;75.42
79366;BME280;68833;53.160;17.920;2023-08-01T05:43:19;99275.61;;;17.61;75.36
79366;BME280;68833;53.160;17.920;2023-08-01T05:45:46;99270.10;;;17.61;75.70
79366;BME280;68833;53.160;17.920;2023-08-01T05:48:13;99271.66;;;17.62;75.86
79366;BME280;68833;53.160;17.920;2023-08-01T05:50:40;99268.26;;;17.62;75.70
79366;BME280;68833;53.160;17.920;2023-08-01T05:53:07;99264.44;;;17.64;75.80
79366;BME280;68833;53.160;17.920;2023-08-01T05:55:34;99255.14;;;17.62;75.88
79366;BME280;68833;53.160;17.920;2023-08-01T05:58:01;99253.31;;;17.60;75.79
79366;BME280;68833;53.160;17.920;2023-08-01T06:00:28;99249.61;;;17.59;75.99
79366;BME280;68833;53.160;17.920;2023-08-01T06:02:57;99252.50;;;17.58;76.07
79366;BME280;68833;53.160;17.920;2023-08-01T06:05:25;99256.96;;;17.55;76.02
79366;BME280;68833;53.160;17.920;2023-08-01T06:07:51;99259.09;;;17.52;76.36
79366;BME280;68833;53.160;17.920;2023-08-01T06:10:18;99259.78;;;17.50;76.24
79366;BME280;68833;53.160;17.920;2023-08-01T06:12:46;99262.95;;;17.47;76.78
79366;BME280;68833;53.160;17.920;2023-08-01T06:15:13;99259.58;;;17.44;76.42
79366;BME280;68833;53.160;17.920;2023-08-01T06:17:40;99259.89;;;17.45;76.91
79366;BME280;68833;53.160;17.920;2023-08-01T06:20:07;99260.29;;;17.44;77.05
79366;BME280;68833;53.160;17.920;2023-08-01T06:22:35;99252.52;;;17.43;76.76
79366;BME280;68833;53.160;17.920;2023-08-01T06:25:02;99253.00;;;17.44;77.17
79366;BME280;68833;53.160;17.920;2023-08-01T06:27:29;99248.90;;;17.45;77.18
79366;BME280;68833;53.160;17.920;2023-08-01T06:29:56;99251.02;;;17.47;77.33
79366;BME280;68833;53.160;17.920;2023-08-01T06:32:23;99251.58;;;17.50;77.22
79366;BME280;68833;53.160;17.920;2023-08-01T06:34:50;99246.16;;;17.51;77.18
79366;BME280;68833;53.160;17.920;2023-08-01T06:37:17;99243.12;;;17.52;77.44
79366;BME280;68833;53.160;17.920;2023-08-01T06:39:44;99247.27;;;17.54;77.59
79366;BME280;68833;53.160;17.920;2023-08-01T06:42:11;99243.36;;;17.54;77.59
79366;BME280;68833;53.160;17.920;2023-08-01T06:44:38;99240.20;;;17.53;77.52
79366;BME280;68833;53.160;17.920;2023-08-01T06:47:05;99246.55;;;17.54;77.39
79366;BME280;68833;53.160;17.920;2023-08-01T06:49:32;99239.35;;;17.56;77.81
79366;BME280;68833;53.160;17.920;2023-08-01T06:51:59;99241.63;;;17.59;77.73
79366;BME280;68833;53.160;17.920;2023-08-01T06:54:26;99238.13;;;17.61;77.90
79366;BME280;68833;53.160;17.920;2023-08-01T06:56:53;99234.08;;;17.63;77.58
79366;BME280;68833;53.160;17.920;2023-08-01T06:59:20;99231.12;;;17.65;77.66
79366;BME280;68833;53.160;17.920;2023-08-01T07:01:47;99228.54;;;17.67;77.49
79366;BME280;68833;53.160;17.920;2023-08-01T07:04:14;99226.49;;;17.68;77.58
79366;BME280;68833;53.160;17.920;2023-08-01T07:06:41;99221.63;;;17.69;77.55
79366;BME280;68833;53.160;17.920;2023-08-01T07:09:07;99216.52;;;17.68;77.83
79366;BME280;68833;53.160;17.920;2023-08-01T07:11:34;99212.67;;;17.65;77.88
79366;BME280;68833;53.160;17.920;2023-08-01T07:14:01;99211.89;;;17.63;78.28
79366;BME280;68833;53.160;17.920;2023-08-01T07:16:28;99207.17;;;17.62;78.05
79366;BME280;68833;53.160;17.920;2023-08-01T07:18:56;99206.42;;;17.63;78.54
79366;BME280;68833;53.160;17.920;2023-08-01T07:21:23;99200.90;;;17.63;78.20
79366;BME280;68833;53.160;17.920;2023-08-01T07:23:49;99199.44;;;17.66;78.28
79366;BME280;68833;53.160;17.920;2023-08-01T07:26:16;99199.64;;;17.69;78.34
79366;BME280;68833;53.160;17.920;2023-08-01T07:28:44;99199.02;;;17.70;78.57
79366;BME280;68833;53.160;17.920;2023-08-01T07:31:11;99195.24;;;17.72;78.68
79366;BME280;68833;53.160;17.920;2023-08-01T07:33:38;99194.67;;;17.72;78.82
79366;BME280;68833;53.160;17.920;2023-08-01T07:36:05;99195.81;;;17.71;78.79
79366;BME280;68833;53.160;17.920;2023-08-01T07:38:32;99193.80;;;17.68;79.05
79366;BME280;68833;53.160;17.920;2023-08-01T07:41:05;99188.41;;;17.67;79.08
79366;BME280;68833;53.160;17.920;2023-08-01T07:43:34;99187.82;;;17.65;78.89
79366;BME280;68833;53.160;17.920;2023-08-01T07:46:00;99187.67;;;17.64;78.98
79366;BME280;68833;53.160;17.920;2023-08-01T07:48:27;99189.14;;;17.64;78.97
79366;BME280;68833;53.160;17.920;2023-08-01T07:50:54;99187.36;;;17.64;79.24
79366;BME280;68833;53.160;17.920;2023-08-01T08:01:38;99179.27;;;17.70;79.09
79366;BME280;68833;53.160;17.920;2023-08-01T08:04:06;99176.88;;;17.69;79.45
79366;BME280;68833;53.160;17.920;2023-08-01T08:06:32;99174.41;;;17.69;79.35
79366;BME280;68833;53.160;17.920;2023-08-01T08:08:59;99173.80;;;17.71;79.14
79366;BME280;68833;53.160;17.920;2023-08-01T08:11:25;99172.63;;;17.73;79.45
79366;BME280;68833;53.160;17.920;2023-08-01T08:13:51;99172.30;;;17.72;79.57
79366;BME280;68833;53.160;17.920;2023-08-01T08:16:18;99168.39;;;17.72;79.49
79366;BME280;68833;53.160;17.920;2023-08-01T08:18:44;99168.20;;;17.69;79.77
79366;BME280;68833;53.160;17.920;2023-08-01T08:21:11;99163.65;;;17.68;79.67
79366;BME280;68833;53.160;17.920;2023-08-01T08:23:38;99163.69;;;17.67;79.70
79366;BME280;68833;53.160;17.920;2023-08-01T08:26:04;99164.01;;;17.68;79.60
79366;BME280;68833;53.160;17.920;2023-08-01T08:28:32;99159.62;;;17.67;79.96
79366;BME280;68833;53.160;17.920;2023-08-01T08:31:00;99158.27;;;17.69;80.18
79366;BME280;68833;53.160;17.920;2023-08-01T08:33:29;99159.20;;;17.71;80.12
79366;BME280;68833;53.160;17.920;2023-08-01T08:35:55;99156.16;;;17.75;80.18
79366;BME280;68833;53.160;17.920;2023-08-01T08:38:22;99159.11;;;17.78;79.80
79366;BME280;68833;53.160;17.920;2023-08-01T08:41:07;99160.22;;;17.80;79.97
79366;BME280;68833;53.160;17.920;2023-08-01T08:43:37;99155.70;;;17.82;79.96
79366;BME280;68833;53.160;17.920;2023-08-01T08:46:04;99157.41;;;17.85;80.00
79366;BME280;68833;53.160;17.920;2023-08-01T08:48:32;99155.50;;;17.91;80.14
79366;BME280;68833;53.160;17.920;2023-08-01T08:51:01;99151.96;;;17.93;79.94
79366;BME280;68833;53.160;17.920;2023-08-01T08:53:27;99150.34;;;17.97;79.96
79366;BME280;68833;53.160;17.920;2023-08-01T08:55:54;99143.66;;;18.01;80.10
79366;BME280;68833;53.160;17.920;2023-08-01T08:58:21;99135.56;;;18.06;79.76
79366;BME280;68833;53.160;17.920;2023-08-01T09:00:48;99130.75;;;18.11;79.80
79366;BME280;68833;53.160;17.920;2023-08-01T09:03:15;99132.92;;;18.21;79.82
79366;BME280;68833;53.160;17.920;2023-08-01T09:05:51;99127.88;;;18.30;79.62
79366;BME280;68833;53.160;17.920;2023-08-01T09:08:21;99125.15;;;18.40;79.94
79366;BME280;68833;53.160;17.920;2023-08-01T09:10:48;99118.20;;;18.53;79.87
79366;BME280;68833;53.160;17.920;2023-08-01T09:13:14;99111.35;;;18.65;79.25
79366;BME280;68833;53.160;17.920;2023-08-01T09:15:41;99108.50;;;18.73;78.87
79366;BME280;68833;53.160;17.920;2023-08-01T09:18:11;99106.05;;;18.80;78.51
79366;BME280;68833;53.160;17.920;2023-08-01T09:20:45;99107.14;;;18.80;77.98
79366;BME280;68833;53.160;17.920;2023-08-01T09:23:12;99103.21;;;18.78;77.56
79366;BME280;68833;53.160;17.920;2023-08-01T09:25:40;99106.72;;;18.76;77.63
79366;BME280;68833;53.160;17.920;2023-08-01T09:28:20;99105.40;;;18.75;77.32
79366;BME280;68833;53.160;17.920;2023-08-01T09:30:52;99098.71;;;18.74;77.07
79366;BME280;68833;53.160;17.920;2023-08-01T09:33:20;99096.16;;;18.71;76.95
79366;BME280;68833;53.160;17.920;2023-08-01T09:35:49;99094.47;;;18.70;77.02
79366;BME280;68833;53.160;17.920;2023-08-01T09:38:16;99093.17;;;18.68;77.10
79366;BME280;68833;53.160;17.920;2023-08-01T09:40:44;99092.40;;;18.69;77.04
79366;BME280;68833;53.160;17.920;2023-08-01T09:43:12;99092.64;;;18.71;76.84
79366;BME280;68833;53.160;17.920;2023-08-01T09:45:52;99084.75;;;18.72;76.83
79366;BME280;68833;53.160;17.920;2023-08-01T09:48:24;99081.92;;;18.77;76.62
79366;BME280;68833;53.160;17.920;2023-08-01T09:50:51;99080.71;;;18.81;76.75
79366;BME280;68833;53.160;17.920;2023-08-01T09:53:17;99076.60;;;18.84;76.62
79366;BME280;68833;53.160;17.920;2023-08-01T09:55:45;99073.74;;;18.87;76.42
79366;BME280;68833;53.160;17.920;2023-08-01T09:58:13;99073.54;;;18.87;76.12
79366;BME280;68833;53.160;17.920;2023-08-01T10:03:37;99068.79;;;18.84;75.83
79366;BME280;68833;53.160;17.920;2023-08-01T10:06:04;99067.65;;;18.78;75.94
79366;BME280;68833;53.160;17.920;2023-08-01T10:08:31;99068.58;;;18.74;76.09
79366;BME280;68833;53.160;17.920;2023-08-01T10:11:04;99063.23;;;18.72;76.02
79366;BME280;68833;53.160;17.920;2023-08-01T10:13:31;99065.79;;;18.70;75.98
79366;BME280;68833;53.160;17.920;2023-08-01T10:15:59;99063.70;;;18.70;76.50
79366;BME280;68833;53.160;17.920;2023-08-01T10:18:28;99067.23;;;18.68;76.60
79366;BME280;68833;53.160;17.920;2023-08-01T10:20:56;99069.04;;;18.65;76.92
79366;BME280;68833;53.160;17.920;2023-08-01T10:23:24;99064.35;;;18.63;76.92
79366;BME280;68833;53.160;17.920;2023-08-01T10:25:53;99063.05;;;18.59;77.21
79366;BME280;68833;53.160;17.920;2023-08-01T10:28:34;99055.73;;;18.59;77.35
79366;BME280;68833;53.160;17.920;2023-08-01T10:31:14;99056.66;;;18.56;77.33
79366;BME280;68833;53.160;17.920;2023-08-01T10:33:43;99048.63;;;18.51;77.44
79366;BME280;68833;53.160;17.920;2023-08-01T10:36:24;99043.81;;;18.51;77.72
79366;BME280;68833;53.160;17.920;2023-08-01T10:38:55;99033.64;;;18.55;77.70
79366;BME280;68833;53.160;17.920;2023-08-01T10:41:32;99028.57;;;18.59;77.88
79366;BME280;68833;53.160;17.920;2023-08-01T10:44:12;99026.40;;;18.64;78.22
79366;BME280;68833;53.160;17.920;2023-08-01T10:49:15;99016.95;;;18.75;78.22
79366;BME280;68833;53.160;17.920;2023-08-01T10:51:43;99010.60;;;18.77;78.22
79366;BME280;68833;53.160;17.920;2023-08-01T10:54:21;99008.52;;;18.81;78.08
79366;BME280;68833;53.160;17.920;2023-08-01T10:56:50;99003.13;;;18.84;78.00
79366;BME280;68833;53.160;17.920;2023-08-01T10:59:18;98999.20;;;18.87;78.02
79366;BME280;68833;53.160;17.920;2023-08-01T11:01:51;98996.71;;;18.90;78.01
79366;BME280;68833;53.160;17.920;2023-08-01T11:04:20;98994.90;;;18.91;77.90
79366;BME280;68833;53.160;17.920;2023-08-01T11:06:53;98994.13;;;18.91;78.07
79366;BME280;68833;53.160;17.920;2023-08-01T11:09:24;98992.45;;;18.90;78.16
79366;BME280;68833;53.160;17.920;2023-08-01T11:11:56;98991.64;;;18.89;78.07
79366;BME280;68833;53.160;17.920;2023-08-01T11:14:28;98986.16;;;18.88;78.13
79366;BME280;68833;53.160;17.920;2023-08-01T11:16:56;98981.73;;;18.88;78.18
79366;BME280;68833;53.160;17.920;2023-08-01T11:19:28;98977.00;;;18.87;78.26
79366;BME280;68833;53.160;17.920;2023-08-01T11:21:56;98974.20;;;18.83;78.25
79366;BME280;68833;53.160;17.920;2023-08-01T11:24:24;98971.34;;;18.81;78.49
79366;BME280;68833;53.160;17.920;2023-08-01T11:26:53;98972.09;;;18.81;78.41
79366;BME280;68833;53.160;17.920;2023-08-01T11:29:22;98974.91;;;18.81;78.56
79366;BME280;68833;53.160;17.920;2023-08-01T11:31:57;98974.91;;;18.81;78.71
79366;BME280;68833;53.160;17.920;2023-08-01T11:34:25;98976.32;;;18.79;78.83
79366;BME280;68833;53.160;17.920;2023-08-01T11:36:52;98977.47;;;18.77;79.07
79366;BME280;68833;53.160;17.920;2023-08-01T11:39:20;98976.84;;;18.74;79.17
79366;BME280;68833;53.160;17.920;2023-08-01T11:41:49;98980.85;;;18.69;79.48
79366;BME280;68833;53.160;17.920;2023-08-01T11:44:16;98974.48;;;18.67;79.56
79366;BME280;68833;53.160;17.920;2023-08-01T11:46:42;98973.22;;;18.62;79.60
79366;BME280;68833;53.160;17.920;2023-08-01T11:49:14;98968.98;;;18.59;79.78
79366;BME280;68833;53.160;17.920;2023-08-01T11:51:42;98967.29;;;18.58;80.02
79366;BME280;68833;53.160;17.920;2023-08-01T11:54:10;98963.34;;;18.56;80.24
79366;BME280;68833;53.160;17.920;2023-08-01T11:56:41;98959.98;;;18.50;80.15
79366;BME280;68833;53.160;17.920;2023-08-01T11:59:12;98955.84;;;18.43;80.11
79366;BME280;68833;53.160;17.920;2023-08-01T12:01:41;98952.97;;;18.41;80.67
79366;BME280;68833;53.160;17.920;2023-08-01T12:04:09;98953.63;;;18.40;80.63
79366;BME280;68833;53.160;17.920;2023-08-01T12:06:36;98952.83;;;18.35;80.54
79366;BME280;68833;53.160;17.920;2023-08-01T12:09:09;98950.40;;;18.34;80.93
79366;BME280;68833;53.160;17.920;2023-08-01T12:11:37;98947.88;;;18.35;80.89
79366;BME280;68833;53.160;17.920;2023-08-01T12:16:31;98938.90;;;18.39;81.19
79366;BME280;68833;53.160;17.920;2023-08-01T12:18:58;98941.87;;;18.45;81.64
79366;BME280;68833;53.160;17.920;2023-08-01T12:21:25;98935.42;;;18.51;81.56
79366;BME280;68833;53.160;17.920;2023-08-01T12:23:52;98938.52;;;18.55;81.41
79366;BME280;68833;53.160;17.920;2023-08-01T12:26:19;98933.73;;;18.57;81.49
79366;BME280;68833;53.160;17.920;2023-08-01T12:28:46;98930.30;;;18.58;81.64
79366;BME280;68833;53.160;17.920;2023-08-01T12:31:20;98932.17;;;18.56;81.46
79366;BME280;68833;53.160;17.920;2023-08-01T12:33:48;98930.60;;;18.56;81.54
79366;BME280;68833;53.160;17.920;2023-08-01T12:36:15;98931.94;;;18.57;81.49
79366;BME280;68833;53.160;17.920;2023-08-01T12:38:42;98930.36;;;18.57;81.49
79366;BME280;68833;53.160;17.920;2023-08-01T12:41:09;98921.75;;;18.58;81.36
79366;BME280;68833;53.160;17.920;2023-08-01T12:43:36;98925.90;;;18.57;81.42
79366;BME280;68833;53.160;17.920;2023-08-01T12:46:04;98917.55;;;18.57;81.16
79366;BME280;68833;53.160;17.920;2023-08-01T12:48:31;98918.87;;;18.61;81.31
79366;BME280;68833;53.160;17.920;2023-08-01T12:50:58;98920.45;;;18.61;81.39
79366;BME280;68833;53.160;17.920;2023-08-01T12:53:25;98915.65;;;18.61;81.44
79366;BME280;68833;53.160;17.920;2023-08-01T12:55:53;98921.08;;;18.65;81.39
79366;BME280;68833;53.160;17.920;2023-08-01T12:58:19;98909.61;;;18.68;81.33
79366;BME280;68833;53.160;17.920;2023-08-01T13:00:46;98916.15;;;18.71;81.34
79366;BME280;68833;53.160;17.920;2023-08-01T13:03:13;98909.55;;;18.72;81.31
79366;BME280;68833;53.160;17.920;2023-08-01T13:05:42;98908.44;;;18.73;81.54
79366;BME280;68833;53.160;17.920;2023-08-01T13:08:09;98906.73;;;18.74;81.59
79366;BME280;68833;53.160;17.920;2023-08-01T13:10:38;98905.60;;;18.73;81.59